CheckWX is a tool to help pilots better visualize weather data.  It is not intended as a substitute for an official pre-flight weather briefing.

14:47:22 UTC

LFPG TAF
Charles de Gaulle International Airport
Paris, France
TAF AMD LFPG 291246Z 2912/3018 27012KT 9999 BKN025 TX12/3018Z TN04/3003Z BECMG 3003/3005 6000 BKN008 TEMPO 3005/3007 BKN004 BECMG 3009/3010 4000 -RA BKN011 PROB40 TEMPO 3012/3013 3000 RA TEMPO 3014/3018 2500 -DZ BKN005

Jan-29@
12:00 UTC

Jan-29 @ 12:00 UTC

Jan-30@
03:00 UTC

Jan-30 @ 03:00 UTC

TAF AMD LFPG 291246Z 2912/3018 27012KT 9999 BKN025 TX12/3018Z TN04/3003Z
Wind
  • 270° at 12 KTS
Cloud Levels
  • Broken at 2,500' AGL

Jan-30@
03:00 UTC

Jan-30 @ 03:00 UTC

Jan-30@
09:00 UTC

Jan-30 @ 09:00 UTC

BECMG 3003/3005 6000 BKN008

Becoming

Becoming Conditions expected by Thu, Jan 30, 2020 @ 05:00 UTC

Wind
  • 270° at 12 KTS
Cloud Levels
  • Broken at 800' AGL

Jan-30@
05:00 UTC

Jan-30 @ 05:00 UTC

Jan-30@
07:00 UTC

Jan-30 @ 07:00 UTC

TEMPO 3005/3007 BKN004

Temporary

Temporary Changes expected for less than half the time period

Cloud Levels
  • Broken at 400' AGL

Jan-30@
09:00 UTC

Jan-30 @ 09:00 UTC

Jan-30@
18:00 UTC

Jan-30 @ 18:00 UTC

BECMG 3009/3010 4000 -RA BKN011

Becoming

Becoming Conditions expected by Thu, Jan 30, 2020 @ 10:00 UTC

Wind
  • 270° at 12 KTS
Conditions
Light Rain
Cloud Levels
  • Broken at 1,100' AGL

Jan-30@
12:00 UTC

Jan-30 @ 12:00 UTC

Jan-30@
13:00 UTC

Jan-30 @ 13:00 UTC

PROB40 TEMPO 3012/3013 3000 RA

Temporary - 40% Likelihood

Temporary - 40% Likelihood during this time.

Conditions
Rain

Jan-30@
14:00 UTC

Jan-30 @ 14:00 UTC

Jan-30@
18:00 UTC

Jan-30 @ 18:00 UTC

TEMPO 3014/3018 2500 -DZ BKN005

Temporary

Temporary Changes expected for less than half the time period

Conditions
Light Drizzle
Cloud Levels
  • Broken at 500' AGL